sensor_id;sensor_type;location;lat;lon;timestamp;temperature;humidity
17174;DHT22;8702;48.130;-1.696;2023-02-28T00:00:26;4.20;99.50
17174;DHT22;8702;48.130;-1.696;2023-02-28T00:02:55;4.20;99.50
17174;DHT22;8702;48.130;-1.696;2023-02-28T00:05:24;4.20;99.60
17174;DHT22;8702;48.130;-1.696;2023-02-28T00:07:51;4.10;99.50
17174;DHT22;8702;48.130;-1.696;2023-02-28T00:10:20;4.10;99.60
17174;DHT22;8702;48.130;-1.696;2023-02-28T00:12:48;4.20;99.60
17174;DHT22;8702;48.130;-1.696;2023-02-28T00:15:19;4.00;99.70
17174;DHT22;8702;48.130;-1.696;2023-02-28T00:17:48;4.10;99.60
17174;DHT22;8702;48.130;-1.696;2023-02-28T00:20:15;4.10;99.70
17174;DHT22;8702;48.130;-1.696;2023-02-28T00:22:44;4.10;99.60
17174;DHT22;8702;48.130;-1.696;2023-02-28T00:25:14;4.00;99.80
17174;DHT22;8702;48.130;-1.696;2023-02-28T00:27:42;4.00;99.70
17174;DHT22;8702;48.130;-1.696;2023-02-28T00:30:11;3.90;99.90
17174;DHT22;8702;48.130;-1.696;2023-02-28T00:32:40;3.90;99.80
17174;DHT22;8702;48.130;-1.696;2023-02-28T00:35:08;3.90;99.80
17174;DHT22;8702;48.130;-1.696;2023-02-28T00:37:35;3.90;99.80
17174;DHT22;8702;48.130;-1.696;2023-02-28T00:40:02;3.90;99.90
17174;DHT22;8702;48.130;-1.696;2023-02-28T00:42:31;4.70;99.90
17174;DHT22;8702;48.130;-1.696;2023-02-28T00:44:58;3.80;99.90
17174;DHT22;8702;48.130;-1.696;2023-02-28T00:47:25;3.80;99.90
17174;DHT22;8702;48.130;-1.696;2023-02-28T00:49:54;3.70;99.90
17174;DHT22;8702;48.130;-1.696;2023-02-28T00:52:20;3.70;99.90
17174;DHT22;8702;48.130;-1.696;2023-02-28T00:54:48;3.60;99.90
17174;DHT22;8702;48.130;-1.696;2023-02-28T00:57:14;3.60;99.90
17174;DHT22;8702;48.130;-1.696;2023-02-28T00:59:42;3.60;99.90
17174;DHT22;8702;48.130;-1.696;2023-02-28T01:02:08;3.60;99.90
17174;DHT22;8702;48.130;-1.696;2023-02-28T01:04:35;3.50;99.90
17174;DHT22;8702;48.130;-1.696;2023-02-28T01:07:04;3.60;99.90
17174;DHT22;8702;48.130;-1.696;2023-02-28T01:09:31;3.60;99.90
17174;DHT22;8702;48.130;-1.696;2023-02-28T01:11:58;3.60;99.90
17174;DHT22;8702;48.130;-1.696;2023-02-28T01:14:25;3.60;99.90
17174;DHT22;8702;48.130;-1.696;2023-02-28T01:16:52;3.60;99.90
17174;DHT22;8702;48.130;-1.696;2023-02-28T01:19:19;3.60;99.90
17174;DHT22;8702;48.130;-1.696;2023-02-28T01:21:46;3.50;99.90
17174;DHT22;8702;48.130;-1.696;2023-02-28T01:24:14;3.50;99.90
17174;DHT22;8702;48.130;-1.696;2023-02-28T01:26:41;3.50;99.90
17174;DHT22;8702;48.130;-1.696;2023-02-28T01:29:11;3.50;99.90
17174;DHT22;8702;48.130;-1.696;2023-02-28T01:31:38;3.50;99.90
17174;DHT22;8702;48.130;-1.696;2023-02-28T01:34:05;3.50;99.90
17174;DHT22;8702;48.130;-1.696;2023-02-28T01:36:33;3.50;99.90
17174;DHT22;8702;48.130;-1.696;2023-02-28T01:38:59;3.50;99.90
17174;DHT22;8702;48.130;-1.696;2023-02-28T01:41:30;3.50;99.90
17174;DHT22;8702;48.130;-1.696;2023-02-28T01:44:00;3.60;99.90
17174;DHT22;8702;48.130;-1.696;2023-02-28T01:46:32;3.50;99.90
17174;DHT22;8702;48.130;-1.696;2023-02-28T01:49:05;3.50;99.90
17174;DHT22;8702;48.130;-1.696;2023-02-28T01:51:38;3.40;99.90
17174;DHT22;8702;48.130;-1.696;2023-02-28T01:54:14;3.40;99.90
17174;DHT22;8702;48.130;-1.696;2023-02-28T01:56:47;3.40;99.90
17174;DHT22;8702;48.130;-1.696;2023-02-28T01:59:22;3.40;99.90
17174;DHT22;8702;48.130;-1.696;2023-02-28T02:01:49;3.20;99.90
17174;DHT22;8702;48.130;-1.696;2023-02-28T02:04:16;3.30;99.90
17174;DHT22;8702;48.130;-1.696;2023-02-28T02:06:46;3.20;99.90
17174;DHT22;8702;48.130;-1.696;2023-02-28T02:09:13;3.20;99.90
17174;DHT22;8702;48.130;-1.696;2023-02-28T02:11:41;3.20;99.90
17174;DHT22;8702;48.130;-1.696;2023-02-28T02:14:40;3.30;99.90
17174;DHT22;8702;48.130;-1.696;2023-02-28T02:17:22;3.20;99.90
17174;DHT22;8702;48.130;-1.696;2023-02-28T02:20:16;3.20;99.90
17174;DHT22;8702;48.130;-1.696;2023-02-28T02:23:07;3.20;99.90
17174;DHT22;8702;48.130;-1.696;2023-02-28T02:25:42;3.10;99.90
17174;DHT22;8702;48.130;-1.696;2023-02-28T02:28:40;3.10;99.90
17174;DHT22;8702;48.130;-1.696;2023-02-28T02:31:34;3.10;99.90
17174;DHT22;8702;48.130;-1.696;2023-02-28T02:37:18;3.00;99.90
17174;DHT22;8702;48.130;-1.696;2023-02-28T02:39:51;3.00;99.90
17174;DHT22;8702;48.130;-1.696;2023-02-28T02:42:26;3.00;99.90
17174;DHT22;8702;48.130;-1.696;2023-02-28T02:44:59;2.90;99.90
17174;DHT22;8702;48.130;-1.696;2023-02-28T02:47:29;3.00;99.90
17174;DHT22;8702;48.130;-1.696;2023-02-28T02:50:01;3.00;99.90
17174;DHT22;8702;48.130;-1.696;2023-02-28T02:52:36;3.10;99.90
17174;DHT22;8702;48.130;-1.696;2023-02-28T02:55:06;3.20;99.90
17174;DHT22;8702;48.130;-1.696;2023-02-28T02:57:40;3.20;99.90
17174;DHT22;8702;48.130;-1.696;2023-02-28T03:00:10;3.20;99.90
17174;DHT22;8702;48.130;-1.696;2023-02-28T03:02:40;3.10;99.90
17174;DHT22;8702;48.130;-1.696;2023-02-28T03:05:14;2.90;99.90
17174;DHT22;8702;48.130;-1.696;2023-02-28T03:07:45;2.90;99.90
17174;DHT22;8702;48.130;-1.696;2023-02-28T03:10:37;2.90;99.90
17174;DHT22;8702;48.130;-1.696;2023-02-28T03:13:35;3.00;99.90
17174;DHT22;8702;48.130;-1.696;2023-02-28T03:16:28;3.00;99.90
17174;DHT22;8702;48.130;-1.696;2023-02-28T03:19:06;2.90;99.90
17174;DHT22;8702;48.130;-1.696;2023-02-28T03:21:43;2.80;99.90
17174;DHT22;8702;48.130;-1.696;2023-02-28T03:24:18;2.90;99.90
17174;DHT22;8702;48.130;-1.696;2023-02-28T03:26:51;2.90;99.90
17174;DHT22;8702;48.130;-1.696;2023-02-28T03:29:24;2.90;99.90
17174;DHT22;8702;48.130;-1.696;2023-02-28T03:31:56;2.90;99.90
17174;DHT22;8702;48.130;-1.696;2023-02-28T03:34:29;2.80;99.90
17174;DHT22;8702;48.130;-1.696;2023-02-28T03:37:01;2.80;99.90
17174;DHT22;8702;48.130;-1.696;2023-02-28T03:39:35;2.60;99.90
17174;DHT22;8702;48.130;-1.696;2023-02-28T03:42:07;2.70;99.90
17174;DHT22;8702;48.130;-1.696;2023-02-28T03:44:36;2.70;99.90
17174;DHT22;8702;48.130;-1.696;2023-02-28T03:47:08;2.60;99.90
17174;DHT22;8702;48.130;-1.696;2023-02-28T03:49:40;2.60;99.90
17174;DHT22;8702;48.130;-1.696;2023-02-28T03:52:10;2.60;99.90
17174;DHT22;8702;48.130;-1.696;2023-02-28T03:54:42;2.70;99.90
17174;DHT22;8702;48.130;-1.696;2023-02-28T03:57:13;2.70;99.90
17174;DHT22;8702;48.130;-1.696;2023-02-28T03:59:43;2.70;99.90
17174;DHT22;8702;48.130;-1.696;2023-02-28T04:02:11;2.70;99.90
17174;DHT22;8702;48.130;-1.696;2023-02-28T04:04:38;2.70;99.90
17174;DHT22;8702;48.130;-1.696;2023-02-28T04:07:14;2.80;99.90
17174;DHT22;8702;48.130;-1.696;2023-02-28T04:09:42;2.70;99.90
17174;DHT22;8702;48.130;-1.696;2023-02-28T04:12:10;2.60;99.90
17174;DHT22;8702;48.130;-1.696;2023-02-28T04:14:37;2.50;99.90
17174;DHT22;8702;48.130;-1.696;2023-02-28T04:17:04;2.50;99.90
17174;DHT22;8702;48.130;-1.696;2023-02-28T04:19:30;2.50;99.90
17174;DHT22;8702;48.130;-1.696;2023-02-28T04:21:57;2.50;99.90
17174;DHT22;8702;48.130;-1.696;2023-02-28T04:24:26;2.50;99.90
17174;DHT22;8702;48.130;-1.696;2023-02-28T04:26:56;2.50;99.90
17174;DHT22;8702;48.130;-1.696;2023-02-28T04:29:25;2.60;99.90
17174;DHT22;8702;48.130;-1.696;2023-02-28T04:31:52;2.60;99.90
17174;DHT22;8702;48.130;-1.696;2023-02-28T04:34:20;2.40;99.90
17174;DHT22;8702;48.130;-1.696;2023-02-28T04:36:48;2.50;99.90
17174;DHT22;8702;48.130;-1.696;2023-02-28T04:39:16;2.50;99.90
17174;DHT22;8702;48.130;-1.696;2023-02-28T04:41:44;2.50;99.90
17174;DHT22;8702;48.130;-1.696;2023-02-28T04:44:12;2.30;99.90
17174;DHT22;8702;48.130;-1.696;2023-02-28T04:46:39;2.30;99.90
17174;DHT22;8702;48.130;-1.696;2023-02-28T04:49:07;2.30;99.90
17174;DHT22;8702;48.130;-1.696;2023-02-28T04:51:34;2.20;99.90
17174;DHT22;8702;48.130;-1.696;2023-02-28T04:54:01;2.10;99.90
17174;DHT22;8702;48.130;-1.696;2023-02-28T04:56:28;2.20;99.90
17174;DHT22;8702;48.130;-1.696;2023-02-28T04:58:55;2.20;99.90
17174;DHT22;8702;48.130;-1.696;2023-02-28T05:01:24;2.20;99.90
17174;DHT22;8702;48.130;-1.696;2023-02-28T05:03:53;2.20;99.90
17174;DHT22;8702;48.130;-1.696;2023-02-28T05:06:23;2.10;99.90
17174;DHT22;8702;48.130;-1.696;2023-02-28T05:08:51;2.10;99.90
17174;DHT22;8702;48.130;-1.696;2023-02-28T05:11:19;2.10;99.90
17174;DHT22;8702;48.130;-1.696;2023-02-28T05:13:47;2.00;99.90
17174;DHT22;8702;48.130;-1.696;2023-02-28T05:16:15;2.00;99.90
17174;DHT22;8702;48.130;-1.696;2023-02-28T05:18:43;2.00;99.90
17174;DHT22;8702;48.130;-1.696;2023-02-28T05:21:24;1.80;99.90
17174;DHT22;8702;48.130;-1.696;2023-02-28T05:23:51;1.80;99.90
17174;DHT22;8702;48.130;-1.696;2023-02-28T05:26:19;1.80;99.90
17174;DHT22;8702;48.130;-1.696;2023-02-28T05:28:46;1.80;99.90
17174;DHT22;8702;48.130;-1.696;2023-02-28T05:31:13;1.70;99.90
17174;DHT22;8702;48.130;-1.696;2023-02-28T05:33:40;1.70;99.90
17174;DHT22;8702;48.130;-1.696;2023-02-28T05:36:09;1.60;99.90
17174;DHT22;8702;48.130;-1.696;2023-02-28T05:38:36;1.60;99.90
17174;DHT22;8702;48.130;-1.696;2023-02-28T05:41:06;1.60;99.90
17174;DHT22;8702;48.130;-1.696;2023-02-28T05:43:34;1.60;99.90
17174;DHT22;8702;48.130;-1.696;2023-02-28T05:46:03;1.50;99.90
17174;DHT22;8702;48.130;-1.696;2023-02-28T05:48:31;1.50;99.90
17174;DHT22;8702;48.130;-1.696;2023-02-28T05:50:58;1.60;99.90
17174;DHT22;8702;48.130;-1.696;2023-02-28T05:53:26;1.60;99.90
17174;DHT22;8702;48.130;-1.696;2023-02-28T05:55:53;1.60;99.90
17174;DHT22;8702;48.130;-1.696;2023-02-28T05:58:22;1.60;99.90
17174;DHT22;8702;48.130;-1.696;2023-02-28T06:00:51;1.60;99.90
17174;DHT22;8702;48.130;-1.696;2023-02-28T06:03:18;1.60;99.90
17174;DHT22;8702;48.130;-1.696;2023-02-28T06:05:44;1.50;99.90
17174;DHT22;8702;48.130;-1.696;2023-02-28T06:08:11;1.50;99.90
17174;DHT22;8702;48.130;-1.696;2023-02-28T06:10:39;1.50;99.90
17174;DHT22;8702;48.130;-1.696;2023-02-28T06:13:06;1.60;99.90
17174;DHT22;8702;48.130;-1.696;2023-02-28T06:15:37;1.60;99.90
17174;DHT22;8702;48.130;-1.696;2023-02-28T06:18:04;1.60;99.90
17174;DHT22;8702;48.130;-1.696;2023-02-28T06:20:31;1.60;99.90
17174;DHT22;8702;48.130;-1.696;2023-02-28T06:22:58;1.70;99.90
17174;DHT22;8702;48.130;-1.696;2023-02-28T06:25:26;1.70;99.90
17174;DHT22;8702;48.130;-1.696;2023-02-28T06:27:55;1.70;99.90
17174;DHT22;8702;48.130;-1.696;2023-02-28T06:30:22;1.70;99.90
17174;DHT22;8702;48.130;-1.696;2023-02-28T06:32:50;1.80;99.90
17174;DHT22;8702;48.130;-1.696;2023-02-28T06:35:17;1.80;99.90
17174;DHT22;8702;48.130;-1.696;2023-02-28T06:37:44;1.80;99.90
17174;DHT22;8702;48.130;-1.696;2023-02-28T06:40:13;1.80;99.90
17174;DHT22;8702;48.130;-1.696;2023-02-28T06:42:41;1.60;99.90
17174;DHT22;8702;48.130;-1.696;2023-02-28T06:45:11;1.50;99.90
17174;DHT22;8702;48.130;-1.696;2023-02-28T06:47:39;1.60;99.90
17174;DHT22;8702;48.130;-1.696;2023-02-28T06:50:07;1.60;99.90
17174;DHT22;8702;48.130;-1.696;2023-02-28T06:52:35;1.60;99.90
17174;DHT22;8702;48.130;-1.696;2023-02-28T06:55:04;1.70;99.90
17174;DHT22;8702;48.130;-1.696;2023-02-28T06:57:32;1.70;99.90
17174;DHT22;8702;48.130;-1.696;2023-02-28T07:00:00;1.70;99.90
17174;DHT22;8702;48.130;-1.696;2023-02-28T07:02:29;1.60;99.90
17174;DHT22;8702;48.130;-1.696;2023-02-28T07:04:57;1.60;99.90
17174;DHT22;8702;48.130;-1.696;2023-02-28T07:07:24;1.60;99.90
17174;DHT22;8702;48.130;-1.696;2023-02-28T07:09:51;1.50;99.90
17174;DHT22;8702;48.130;-1.696;2023-02-28T07:12:18;1.60;99.90
17174;DHT22;8702;48.130;-1.696;2023-02-28T07:14:45;1.50;99.90
17174;DHT22;8702;48.130;-1.696;2023-02-28T07:17:11;1.50;99.90
17174;DHT22;8702;48.130;-1.696;2023-02-28T07:19:40;1.60;99.90
17174;DHT22;8702;48.130;-1.696;2023-02-28T07:22:07;1.60;99.90
17174;DHT22;8702;48.130;-1.696;2023-02-28T07:24:34;1.60;99.90
17174;DHT22;8702;48.130;-1.696;2023-02-28T07:27:01;1.60;99.90
17174;DHT22;8702;48.130;-1.696;2023-02-28T07:29:30;1.60;99.90
17174;DHT22;8702;48.130;-1.696;2023-02-28T07:31:57;1.50;99.90
17174;DHT22;8702;48.130;-1.696;2023-02-28T07:34:24;1.60;99.90
17174;DHT22;8702;48.130;-1.696;2023-02-28T07:36:54;1.60;99.90
17174;DHT22;8702;48.130;-1.696;2023-02-28T07:39:21;1.50;99.90
17174;DHT22;8702;48.130;-1.696;2023-02-28T07:41:49;1.50;99.90
17174;DHT22;8702;48.130;-1.696;2023-02-28T07:44:17;1.50;99.90
17174;DHT22;8702;48.130;-1.696;2023-02-28T07:46:44;1.60;99.90
17174;DHT22;8702;48.130;-1.696;2023-02-28T07:49:11;1.60;99.90
17174;DHT22;8702;48.130;-1.696;2023-02-28T07:51:38;1.50;99.90
17174;DHT22;8702;48.130;-1.696;2023-02-28T07:54:06;1.50;99.90
17174;DHT22;8702;48.130;-1.696;2023-02-28T07:56:33;1.50;99.90
17174;DHT22;8702;48.130;-1.696;2023-02-28T07:59:00;1.60;99.90
17174;DHT22;8702;48.130;-1.696;2023-02-28T08:01:27;1.60;99.90
17174;DHT22;8702;48.130;-1.696;2023-02-28T08:03:54;1.60;99.90
17174;DHT22;8702;48.130;-1.696;2023-02-28T08:06:24;1.70;99.90
17174;DHT22;8702;48.130;-1.696;2023-02-28T08:08:52;1.70;99.90
17174;DHT22;8702;48.130;-1.696;2023-02-28T08:11:20;1.80;99.90
17174;DHT22;8702;48.130;-1.696;2023-02-28T08:13:47;1.80;99.90
17174;DHT22;8702;48.130;-1.696;2023-02-28T08:16:14;1.80;99.90
17174;DHT22;8702;48.130;-1.696;2023-02-28T08:18:48;1.90;99.90
17174;DHT22;8702;48.130;-1.696;2023-02-28T08:21:15;1.80;99.90
17174;DHT22;8702;48.130;-1.696;2023-02-28T08:23:42;1.90;99.90
17174;DHT22;8702;48.130;-1.696;2023-02-28T08:26:09;1.90;99.90
17174;DHT22;8702;48.130;-1.696;2023-02-28T08:28:38;2.00;99.90
17174;DHT22;8702;48.130;-1.696;2023-02-28T08:31:08;2.00;99.90
17174;DHT22;8702;48.130;-1.696;2023-02-28T08:33:36;2.00;99.90
17174;DHT22;8702;48.130;-1.696;2023-02-28T08:36:06;2.10;99.90
17174;DHT22;8702;48.130;-1.696;2023-02-28T08:38:35;2.10;99.90
17174;DHT22;8702;48.130;-1.696;2023-02-28T08:41:04;2.10;99.90
17174;DHT22;8702;48.130;-1.696;2023-02-28T08:43:32;2.20;99.90
17174;DHT22;8702;48.130;-1.696;2023-02-28T08:46:01;2.20;99.90
17174;DHT22;8702;48.130;-1.696;2023-02-28T08:48:30;2.30;99.90
17174;DHT22;8702;48.130;-1.696;2023-02-28T08:50:58;2.20;99.90
17174;DHT22;8702;48.130;-1.696;2023-02-28T08:53:26;2.30;99.90
17174;DHT22;8702;48.130;-1.696;2023-02-28T08:55:57;2.40;99.90
17174;DHT22;8702;48.130;-1.696;2023-02-28T08:58:24;2.40;99.90
17174;DHT22;8702;48.130;-1.696;2023-02-28T09:00:51;2.50;99.90
17174;DHT22;8702;48.130;-1.696;2023-02-28T09:03:19;2.50;99.90
17174;DHT22;8702;48.130;-1.696;2023-02-28T09:05:55;2.50;99.90
17174;DHT22;8702;48.130;-1.696;2023-02-28T09:08:22;2.60;99.90
17174;DHT22;8702;48.130;-1.696;2023-02-28T09:10:49;2.60;99.90
17174;DHT22;8702;48.130;-1.696;2023-02-28T09:13:16;2.60;99.90
17174;DHT22;8702;48.130;-1.696;2023-02-28T09:15:43;2.60;99.90
17174;DHT22;8702;48.130;-1.696;2023-02-28T09:18:10;2.70;99.90
17174;DHT22;8702;48.130;-1.696;2023-02-28T09:20:39;2.80;99.90
17174;DHT22;8702;48.130;-1.696;2023-02-28T09:23:07;2.90;99.90
17174;DHT22;8702;48.130;-1.696;2023-02-28T09:25:34;3.00;99.90
17174;DHT22;8702;48.130;-1.696;2023-02-28T09:28:01;2.90;99.90
17174;DHT22;8702;48.130;-1.696;2023-02-28T09:30:28;2.90;99.90
17174;DHT22;8702;48.130;-1.696;2023-02-28T09:32:55;3.00;99.90
17174;DHT22;8702;48.130;-1.696;2023-02-28T09:35:24;3.10;99.90
17174;DHT22;8702;48.130;-1.696;2023-02-28T09:37:53;3.20;99.90
17174;DHT22;8702;48.130;-1.696;2023-02-28T09:40:22;3.30;99.90
17174;DHT22;8702;48.130;-1.696;2023-02-28T09:42:51;3.40;99.90
17174;DHT22;8702;48.130;-1.696;2023-02-28T09:45:24;3.40;99.90
17174;DHT22;8702;48.130;-1.696;2023-02-28T09:47:56;3.50;99.90
17174;DHT22;8702;48.130;-1.696;2023-02-28T09:50:31;3.50;99.90
17174;DHT22;8702;48.130;-1.696;2023-02-28T09:53:06;3.60;99.90
17174;DHT22;8702;48.130;-1.696;2023-02-28T09:55:41;3.70;99.80
17174;DHT22;8702;48.130;-1.696;2023-02-28T09:58:16;3.80;99.50
17174;DHT22;8702;48.130;-1.696;2023-02-28T10:00:57;3.80;99.80
17174;DHT22;8702;48.130;-1.696;2023-02-28T10:03:30;3.90;99.50
17174;DHT22;8702;48.130;-1.696;2023-02-28T10:06:04;3.90;99.50
17174;DHT22;8702;48.130;-1.696;2023-02-28T10:08:37;4.00;99.40
17174;DHT22;8702;48.130;-1.696;2023-02-28T10:11:13;4.00;98.60
17174;DHT22;8702;48.130;-1.696;2023-02-28T10:13:50;4.10;98.60
17174;DHT22;8702;48.130;-1.696;2023-02-28T10:16:23;4.10;98.50
17174;DHT22;8702;48.130;-1.696;2023-02-28T10:18:56;4.10;98.20
17174;DHT22;8702;48.130;-1.696;2023-02-28T10:21:28;4.20;98.00
17174;DHT22;8702;48.130;-1.696;2023-02-28T10:24:03;4.20;97.50
17174;DHT22;8702;48.130;-1.696;2023-02-28T10:26:32;4.30;96.60
17174;DHT22;8702;48.130;-1.696;2023-02-28T10:29:00;4.30;96.30
17174;DHT22;8702;48.130;-1.696;2023-02-28T10:31:28;4.30;96.30
17174;DHT22;8702;48.130;-1.696;2023-02-28T10:33:56;4.40;96.20
17174;DHT22;8702;48.130;-1.696;2023-02-28T10:36:23;4.40;95.90
17174;DHT22;8702;48.130;-1.696;2023-02-28T10:38:54;4.50;96.10
17174;DHT22;8702;48.130;-1.696;2023-02-28T10:41:30;4.50;96.30
17174;DHT22;8702;48.130;-1.696;2023-02-28T10:44:14;4.60;96.40
17174;DHT22;8702;48.130;-1.696;2023-02-28T10:46:42;4.60;96.10
17174;DHT22;8702;48.130;-1.696;2023-02-28T10:49:14;4.70;96.20
17174;DHT22;8702;48.130;-1.696;2023-02-28T10:51:43;4.70;95.60
17174;DHT22;8702;48.130;-1.696;2023-02-28T10:54:19;4.70;95.20
17174;DHT22;8702;48.130;-1.696;2023-02-28T10:57:06;4.70;95.40
17174;DHT22;8702;48.130;-1.696;2023-02-28T10:59:34;4.80;95.60
17174;DHT22;8702;48.130;-1.696;2023-02-28T11:02:01;4.90;95.30
17174;DHT22;8702;48.130;-1.696;2023-02-28T11:04:35;5.00;94.70
17174;DHT22;8702;48.130;-1.696;2023-02-28T11:07:06;4.90;94.60
17174;DHT22;8702;48.130;-1.696;2023-02-28T11:09:45;5.00;94.70
17174;DHT22;8702;48.130;-1.696;2023-02-28T11:12:22;5.10;94.90
17174;DHT22;8702;48.130;-1.696;2023-02-28T11:14:51;5.00;93.80
17174;DHT22;8702;48.130;-1.696;2023-02-28T11:17:21;5.20;95.30
17174;DHT22;8702;48.130;-1.696;2023-02-28T11:19:53;5.30;94.50
17174;DHT22;8702;48.130;-1.696;2023-02-28T11:22:24;5.30;94.70
17174;DHT22;8702;48.130;-1.696;2023-02-28T11:24:55;5.30;94.80
17174;DHT22;8702;48.130;-1.696;2023-02-28T11:27:44;5.40;94.60
17174;DHT22;8702;48.130;-1.696;2023-02-28T11:30:28;5.50;94.40
17174;DHT22;8702;48.130;-1.696;2023-02-28T11:32:55;5.50;93.50
17174;DHT22;8702;48.130;-1.696;2023-02-28T11:35:26;5.50;93.60
17174;DHT22;8702;48.130;-1.696;2023-02-28T11:37:53;5.50;93.20
17174;DHT22;8702;48.130;-1.696;2023-02-28T11:40:24;5.60;93.20
17174;DHT22;8702;48.130;-1.696;2023-02-28T11:43:06;5.70;92.90
17174;DHT22;8702;48.130;-1.696;2023-02-28T11:45:44;5.70;92.90
17174;DHT22;8702;48.130;-1.696;2023-02-28T11:48:18;5.80;93.10
17174;DHT22;8702;48.130;-1.696;2023-02-28T11:50:59;5.80;93.00
17174;DHT22;8702;48.130;-1.696;2023-02-28T11:53:44;5.90;93.00
17174;DHT22;8702;48.130;-1.696;2023-02-28T11:56:19;5.90;93.30
17174;DHT22;8702;48.130;-1.696;2023-02-28T11:58:55;6.00;93.10
17174;DHT22;8702;48.130;-1.696;2023-02-28T12:01:37;6.00;93.00
17174;DHT22;8702;48.130;-1.696;2023-02-28T12:04:17;6.10;92.60
17174;DHT22;8702;48.130;-1.696;2023-02-28T12:06:50;6.20;92.50
17174;DHT22;8702;48.130;-1.696;2023-02-28T12:09:35;6.20;92.90
17174;DHT22;8702;48.130;-1.696;2023-02-28T12:12:17;6.30;92.30
17174;DHT22;8702;48.130;-1.696;2023-02-28T12:15:16;6.40;93.00
17174;DHT22;8702;48.130;-1.696;2023-02-28T12:17:51;6.40;92.40
17174;DHT22;8702;48.130;-1.696;2023-02-28T12:20:27;6.30;92.50
17174;DHT22;8702;48.130;-1.696;2023-02-28T12:26:07;6.50;92.60
17174;DHT22;8702;48.130;-1.696;2023-02-28T12:28:39;6.50;92.40
17174;DHT22;8702;48.130;-1.696;2023-02-28T12:31:14;6.50;92.70
17174;DHT22;8702;48.130;-1.696;2023-02-28T12:33:46;6.50;92.90
17174;DHT22;8702;48.130;-1.696;2023-02-28T12:36:17;6.60;93.20
17174;DHT22;8702;48.130;-1.696;2023-02-28T12:38:48;6.70;93.20
17174;DHT22;8702;48.130;-1.696;2023-02-28T12:41:18;6.90;93.30
17174;DHT22;8702;48.130;-1.696;2023-02-28T12:43:49;7.00;93.30
17174;DHT22;8702;48.130;-1.696;2023-02-28T12:46:22;7.00;92.70
17174;DHT22;8702;48.130;-1.696;2023-02-28T12:48:53;7.10;92.90
17174;DHT22;8702;48.130;-1.696;2023-02-28T12:51:23;7.20;93.10
17174;DHT22;8702;48.130;-1.696;2023-02-28T12:53:59;7.40;92.70
17174;DHT22;8702;48.130;-1.696;2023-02-28T12:56:36;7.30;92.70
17174;DHT22;8702;48.130;-1.696;2023-02-28T12:59:12;7.30;92.60
17174;DHT22;8702;48.130;-1.696;2023-02-28T13:02:00;7.30;92.70
17174;DHT22;8702;48.130;-1.696;2023-02-28T13:04:55;7.40;93.10
17174;DHT22;8702;48.130;-1.696;2023-02-28T13:07:55;7.40;92.50
17174;DHT22;8702;48.130;-1.696;2023-02-28T13:10:38;7.50;93.20
17174;DHT22;8702;48.130;-1.696;2023-02-28T13:13:06;7.70;92.90
17174;DHT22;8702;48.130;-1.696;2023-02-28T13:15:38;7.80;93.00
17174;DHT22;8702;48.130;-1.696;2023-02-28T13:18:28;7.90;92.70
17174;DHT22;8702;48.130;-1.696;2023-02-28T13:20:56;8.00;92.70
17174;DHT22;8702;48.130;-1.696;2023-02-28T13:23:39;8.00;92.80
17174;DHT22;8702;48.130;-1.696;2023-02-28T13:26:06;8.00;93.00
17174;DHT22;8702;48.130;-1.696;2023-02-28T13:29:27;8.00;92.70
17174;DHT22;8702;48.130;-1.696;2023-02-28T13:35:37;8.10;92.80
17174;DHT22;8702;48.130;-1.696;2023-02-28T13:38:32;8.20;93.10
17174;DHT22;8702;48.130;-1.696;2023-02-28T13:44:02;8.00;92.90
17174;DHT22;8702;48.130;-1.696;2023-02-28T13:46:31;8.00;93.40
17174;DHT22;8702;48.130;-1.696;2023-02-28T13:49:19;8.00;93.40
17174;DHT22;8702;48.130;-1.696;2023-02-28T13:51:48;7.90;93.30
17174;DHT22;8702;48.130;-1.696;2023-02-28T13:54:37;7.90;93.80
17174;DHT22;8702;48.130;-1.696;2023-02-28T13:57:20;7.80;93.60
17174;DHT22;8702;48.130;-1.696;2023-02-28T13:59:56;7.70;94.00
17174;DHT22;8702;48.130;-1.696;2023-02-28T14:02:40;7.60;94.30
17174;DHT22;8702;48.130;-1.696;2023-02-28T14:05:14;7.50;94.40
17174;DHT22;8702;48.130;-1.696;2023-02-28T14:07:46;7.40;94.60
17174;DHT22;8702;48.130;-1.696;2023-02-28T14:10:24;7.30;94.90
17174;DHT22;8702;48.130;-1.696;2023-02-28T14:13:00;7.30;94.90
17174;DHT22;8702;48.130;-1.696;2023-02-28T14:18:32;7.20;95.30
17174;DHT22;8702;48.130;-1.696;2023-02-28T14:21:20;7.10;95.60
17174;DHT22;8702;48.130;-1.696;2023-02-28T14:24:04;7.20;95.70
17174;DHT22;8702;48.130;-1.696;2023-02-28T14:27:03;7.20;95.90
17174;DHT22;8702;48.130;-1.696;2023-02-28T14:32:35;7.20;96.10
17174;DHT22;8702;48.130;-1.696;2023-02-28T14:35:11;7.10;96.60
17174;DHT22;8702;48.130;-1.696;2023-02-28T14:37:41;7.10;96.50
17174;DHT22;8702;48.130;-1.696;2023-02-28T14:40:15;7.00;96.70
17174;DHT22;8702;48.130;-1.696;2023-02-28T14:42:48;7.00;97.10
17174;DHT22;8702;48.130;-1.696;2023-02-28T14:45:18;6.90;97.90
17174;DHT22;8702;48.130;-1.696;2023-02-28T14:47:47;6.80;98.20
17174;DHT22;8702;48.130;-1.696;2023-02-28T14:50:20;6.80;98.50
17174;DHT22;8702;48.130;-1.696;2023-02-28T14:52:48;6.80;98.40
17174;DHT22;8702;48.130;-1.696;2023-02-28T14:55:24;6.90;98.70
17174;DHT22;8702;48.130;-1.696;2023-02-28T14:57:53;6.90;98.90
17174;DHT22;8702;48.130;-1.696;2023-02-28T15:00:23;6.80;99.10
17174;DHT22;8702;48.130;-1.696;2023-02-28T15:02:50;6.80;99.10
17174;DHT22;8702;48.130;-1.696;2023-02-28T15:05:29;6.80;99.20
17174;DHT22;8702;48.130;-1.696;2023-02-28T15:08:12;6.80;99.20
17174;DHT22;8702;48.130;-1.696;2023-02-28T15:10:43;6.80;99.30
17174;DHT22;8702;48.130;-1.696;2023-02-28T15:13:12;6.80;99.60
17174;DHT22;8702;48.130;-1.696;2023-02-28T15:15:44;6.80;99.90
17174;DHT22;8702;48.130;-1.696;2023-02-28T15:18:18;6.60;99.90
17174;DHT22;8702;48.130;-1.696;2023-02-28T15:20:48;6.50;99.90
17174;DHT22;8702;48.130;-1.696;2023-02-28T15:23:15;6.50;99.90
17174;DHT22;8702;48.130;-1.696;2023-02-28T15:25:44;6.50;99.90
17174;DHT22;8702;48.130;-1.696;2023-02-28T15:28:15;6.60;99.90
17174;DHT22;8702;48.130;-1.696;2023-02-28T15:30:53;6.50;99.90
17174;DHT22;8702;48.130;-1.696;2023-02-28T15:33:21;6.40;99.90
17174;DHT22;8702;48.130;-1.696;2023-02-28T15:35:48;6.40;99.90
17174;DHT22;8702;48.130;-1.696;2023-02-28T15:38:18;6.30;99.90
17174;DHT22;8702;48.130;-1.696;2023-02-28T15:40:52;6.40;99.90
17174;DHT22;8702;48.130;-1.696;2023-02-28T15:43:26;6.40;99.90
17174;DHT22;8702;48.130;-1.696;2023-02-28T15:45:56;6.40;99.90
17174;DHT22;8702;48.130;-1.696;2023-02-28T15:48:27;6.40;99.90
17174;DHT22;8702;48.130;-1.696;2023-02-28T15:50:56;6.40;99.90
17174;DHT22;8702;48.130;-1.696;2023-02-28T15:53:27;6.30;99.90
17174;DHT22;8702;48.130;-1.696;2023-02-28T15:55:59;6.20;99.90
17174;DHT22;8702;48.130;-1.696;2023-02-28T15:58:26;6.20;99.90
17174;DHT22;8702;48.130;-1.696;2023-02-28T16:01:04;6.20;99.90
17174;DHT22;8702;48.130;-1.696;2023-02-28T16:03:39;6.30;99.90
17174;DHT22;8702;48.130;-1.696;2023-02-28T16:09:11;6.30;99.90
17174;DHT22;8702;48.130;-1.696;2023-02-28T16:11:43;6.30;99.90
17174;DHT22;8702;48.130;-1.696;2023-02-28T16:14:14;6.20;99.90
17174;DHT22;8702;48.130;-1.696;2023-02-28T16:16:43;6.20;99.90
17174;DHT22;8702;48.130;-1.696;2023-02-28T16:19:10;6.20;99.90
17174;DHT22;8702;48.130;-1.696;2023-02-28T16:21:37;6.30;99.90
17174;DHT22;8702;48.130;-1.696;2023-02-28T16:24:04;6.30;99.90
17174;DHT22;8702;48.130;-1.696;2023-02-28T16:26:31;6.30;99.90
17174;DHT22;8702;48.130;-1.696;2023-02-28T16:29:01;6.40;99.90
17174;DHT22;8702;48.130;-1.696;2023-02-28T16:31:30;6.40;99.90
17174;DHT22;8702;48.130;-1.696;2023-02-28T16:33:57;6.30;99.90